Time;durP1;ratioP1;P1;durP2;ratioP2;P2;SDS_P1;SDS_P2;PMS_P1;PMS_P2;Temp;Humidity;BMP_temperature;BMP_pressure;BME280_temperature;BME280_humidity;BME280_pressure;Samples;Min_cycle;Max_cycle;Signal;HPM_P1;HPM_P2
2023/09/08 00:01:31;;;;;;;6.47;5.03;;;;;;;;;;5024836;28;20463;-55
2023/09/08 00:03:59;;;;;;;6.87;4.80;;;;;;;;;;5013006;28;20474;-54
2023/09/08 00:06:26;;;;;;;5.10;4.60;;;;;;;;;;5012899;28;20533;-55
2023/09/08 00:08:54;;;;;;;6.90;4.40;;;;;;;;;;5012975;28;20518;-54
2023/09/08 00:11:21;;;;;;;6.20;4.70;;;;;;;;;;5012091;28;21008;-55
2023/09/08 00:13:50;;;;;;;5.60;4.63;;;;;;;;;;5012963;28;20487;-54
2023/09/08 00:16:17;;;;;;;4.83;4.33;;;;;;;;;;5012551;28;20457;-54
2023/09/08 00:18:44;;;;;;;5.87;4.50;;;;;;;;;;5012682;28;20522;-54
2023/09/08 00:21:13;;;;;;;8.93;4.90;;;;;;;;;;5012181;28;20530;-55
2023/09/08 00:23:40;;;;;;;7.63;4.80;;;;;;;;;;5012691;28;20490;-54
2023/09/08 00:26:07;;;;;;;7.00;4.17;;;;;;;;;;5012056;28;20527;-56
2023/09/08 00:28:34;;;;;;;5.97;4.07;;;;;;;;;;5012732;28;20498;-55
2023/09/08 00:31:02;;;;;;;5.00;4.13;;;;;;;;;;5012471;28;20517;-54
2023/09/08 00:33:29;;;;;;;5.73;4.00;;;;;;;;;;5012084;28;20986;-54
2023/09/08 00:35:57;;;;;;;6.10;4.53;;;;;;;;;;5012148;28;20530;-55
2023/09/08 00:38:26;;;;;;;4.90;4.20;;;;;;;;;;5012137;28;20832;-54
2023/09/08 00:40:53;;;;;;;5.40;4.20;;;;;;;;;;5012236;28;20471;-54
2023/09/08 00:43:20;;;;;;;5.93;5.33;;;;;;;;;;5012242;28;20965;-54
2023/09/08 00:45:48;;;;;;;5.27;4.77;;;;;;;;;;5011810;28;20530;-55
2023/09/08 00:48:15;;;;;;;4.77;4.30;;;;;;;;;;5012130;28;21001;-54
2023/09/08 00:50:42;;;;;;;5.23;4.10;;;;;;;;;;5011471;28;20465;-54
2023/09/08 00:53:10;;;;;;;6.80;4.10;;;;;;;;;;5012106;28;20981;-55
2023/09/08 00:55:40;;;;;;;6.30;4.30;;;;;;;;;;5011653;28;20443;-54
2023/09/08 00:58:08;;;;;;;4.73;4.20;;;;;;;;;;5012219;28;20445;-54
2023/09/08 01:00:35;;;;;;;7.23;4.63;;;;;;;;;;5012035;28;20490;-55
2023/09/08 01:03:03;;;;;;;7.20;4.87;;;;;;;;;;5011709;28;20471;-55
2023/09/08 01:05:30;;;;;;;6.00;4.70;;;;;;;;;;5011621;28;20470;-54
2023/09/08 01:07:58;;;;;;;7.17;4.77;;;;;;;;;;5011866;28;20865;-54
2023/09/08 01:10:25;;;;;;;5.77;4.53;;;;;;;;;;5011523;28;20479;-56
2023/09/08 01:12:54;;;;;;;6.83;4.27;;;;;;;;;;5011819;28;20570;-55
2023/09/08 01:15:21;;;;;;;6.23;4.83;;;;;;;;;;5011416;28;20474;-53
2023/09/08 01:17:49;;;;;;;7.60;4.53;;;;;;;;;;5011743;28;20482;-52
2023/09/08 01:20:21;;;;;;;4.87;4.37;;;;;;;;;;5011098;28;20447;-55
2023/09/08 01:22:57;;;;;;;6.60;4.20;;;;;;;;;;5010623;28;20459;-54
2023/09/08 01:25:27;;;;;;;5.80;4.30;;;;;;;;;;5010915;28;20541;-54
2023/09/08 01:27:56;;;;;;;5.43;4.60;;;;;;;;;;5011498;28;20439;-54
2023/09/08 01:30:24;;;;;;;6.10;4.30;;;;;;;;;;5011590;28;20478;-54
2023/09/08 01:32:52;;;;;;;6.07;4.43;;;;;;;;;;5011427;28;20562;-54
2023/09/08 01:35:19;;;;;;;6.33;5.00;;;;;;;;;;5011396;28;20475;-54
2023/09/08 01:37:47;;;;;;;5.20;4.60;;;;;;;;;;5011223;28;20868;-55
2023/09/08 01:40:14;;;;;;;4.43;3.90;;;;;;;;;;5011459;28;20467;-54
2023/09/08 01:42:43;;;;;;;6.20;4.30;;;;;;;;;;5011241;28;20530;-54
2023/09/08 01:45:10;;;;;;;6.33;4.40;;;;;;;;;;5011208;28;20522;-54
2023/09/08 01:47:38;;;;;;;6.13;4.40;;;;;;;;;;5010865;28;20526;-54
2023/09/08 01:50:06;;;;;;;4.97;4.37;;;;;;;;;;5010915;28;20893;-55
2023/09/08 01:52:33;;;;;;;5.40;4.23;;;;;;;;;;5010987;28;20916;-54
2023/09/08 01:55:00;;;;;;;6.37;4.83;;;;;;;;;;5011117;28;20439;-54
2023/09/08 01:57:27;;;;;;;5.30;4.07;;;;;;;;;;5010948;28;20486;-55
2023/09/08 01:59:56;;;;;;;9.27;4.43;;;;;;;;;;5011253;28;20447;-54
2023/09/08 02:02:23;;;;;;;5.60;4.27;;;;;;;;;;5010670;28;20572;-54
2023/09/08 02:04:50;;;;;;;5.03;3.83;;;;;;;;;;5010962;28;20948;-55
2023/09/08 02:07:18;;;;;;;5.83;4.80;;;;;;;;;;5010850;28;20474;-54
2023/09/08 02:09:45;;;;;;;6.07;4.67;;;;;;;;;;5011111;28;20446;-54
2023/09/08 02:12:12;;;;;;;7.43;4.20;;;;;;;;;;5010754;28;20574;-55
2023/09/08 02:14:39;;;;;;;5.00;4.50;;;;;;;;;;5010969;28;20529;-55
2023/09/08 02:17:08;;;;;;;7.20;4.30;;;;;;;;;;5010478;28;20478;-54
2023/09/08 02:19:35;;;;;;;5.47;4.50;;;;;;;;;;5011112;28;20435;-54
2023/09/08 02:22:02;;;;;;;5.53;4.00;;;;;;;;;;5010833;28;20529;-54
2023/09/08 02:24:29;;;;;;;5.70;4.30;;;;;;;;;;5010919;28;20617;-54
2023/09/08 02:26:57;;;;;;;7.17;5.10;;;;;;;;;;5009998;28;20950;-55
2023/09/08 02:29:24;;;;;;;5.07;4.13;;;;;;;;;;5011049;28;20498;-54
2023/09/08 02:31:51;;;;;;;5.40;4.30;;;;;;;;;;5010531;28;20984;-54
2023/09/08 02:34:20;;;;;;;5.70;4.20;;;;;;;;;;5011820;28;20479;-55
2023/09/08 02:36:50;;;;;;;6.13;4.40;;;;;;;;;;5014495;28;20541;-55
2023/09/08 02:39:18;;;;;;;5.10;4.27;;;;;;;;;;5014827;28;20450;-54
2023/09/08 02:41:45;;;;;;;5.70;4.30;;;;;;;;;;5014492;28;20481;-53
2023/09/08 02:44:12;;;;;;;6.27;4.90;;;;;;;;;;5014828;28;20467;-54
2023/09/08 02:46:39;;;;;;;7.53;4.33;;;;;;;;;;5014562;28;20758;-54
2023/09/08 02:49:07;;;;;;;5.13;4.63;;;;;;;;;;5014591;28;20481;-54
2023/09/08 02:51:36;;;;;;;5.10;4.23;;;;;;;;;;5014444;28;20479;-54
2023/09/08 02:54:03;;;;;;;8.80;4.30;;;;;;;;;;5014335;28;20466;-54
2023/09/08 02:56:30;;;;;;;4.93;4.13;;;;;;;;;;5014136;28;20486;-54
2023/09/08 02:58:57;;;;;;;4.70;4.23;;;;;;;;;;5014363;28;20475;-54
2023/09/08 03:01:25;;;;;;;5.17;4.30;;;;;;;;;;5014430;28;20533;-53
2023/09/08 03:03:52;;;;;;;7.23;5.07;;;;;;;;;;5043690;23;20521;-59
2023/09/08 03:06:20;;;;;;;6.00;4.37;;;;;;;;;;5032978;28;20524;-58
2023/09/08 03:08:48;;;;;;;6.17;4.10;;;;;;;;;;5033501;28;20525;-60
2023/09/08 03:11:16;;;;;;;7.47;4.77;;;;;;;;;;5033718;28;20470;-58
2023/09/08 03:13:43;;;;;;;4.77;4.27;;;;;;;;;;5033528;28;20559;-59
2023/09/08 03:16:10;;;;;;;4.13;3.40;;;;;;;;;;5033246;28;20833;-58
2023/09/08 03:18:38;;;;;;;7.90;4.97;;;;;;;;;;5033306;28;20960;-59
2023/09/08 03:21:10;;;;;;;5.20;4.03;;;;;;;;;;5033605;28;20870;-59
2023/09/08 03:23:37;;;;;;;6.10;4.63;;;;;;;;;;5033313;28;21029;-59
2023/09/08 03:26:06;;;;;;;5.87;3.97;;;;;;;;;;5032706;28;20489;-59
2023/09/08 03:28:34;;;;;;;5.53;3.90;;;;;;;;;;5033373;28;20438;-59
2023/09/08 03:31:02;;;;;;;5.43;4.00;;;;;;;;;;5033266;28;20470;-59
2023/09/08 03:33:29;;;;;;;5.17;4.10;;;;;;;;;;5032805;28;21068;-60
2023/09/08 03:35:56;;;;;;;5.13;4.63;;;;;;;;;;5033057;28;20530;-60
2023/09/08 03:38:24;;;;;;;6.03;4.30;;;;;;;;;;5033279;28;20438;-60
2023/09/08 03:40:51;;;;;;;5.13;4.30;;;;;;;;;;5032998;28;20474;-58
2023/09/08 03:43:20;;;;;;;7.23;3.80;;;;;;;;;;5032988;28;20533;-59
2023/09/08 03:45:48;;;;;;;5.80;3.97;;;;;;;;;;5031510;28;20442;-59
2023/09/08 03:48:15;;;;;;;5.40;4.70;;;;;;;;;;5033106;28;20439;-59
2023/09/08 03:50:45;;;;;;;5.00;4.43;;;;;;;;;;5032991;28;20507;-59
2023/09/08 03:53:12;;;;;;;7.20;4.60;;;;;;;;;;5031702;28;21030;-58
2023/09/08 03:55:39;;;;;;;5.17;3.90;;;;;;;;;;5030319;28;20901;-59
2023/09/08 03:58:07;;;;;;;5.40;3.87;;;;;;;;;;5031992;28;20607;-59
2023/09/08 04:00:36;;;;;;;4.93;3.83;;;;;;;;;;5032150;28;20529;-59
2023/09/08 04:03:04;;;;;;;5.70;4.47;;;;;;;;;;5032642;28;20467;-60
2023/09/08 04:05:31;;;;;;;6.10;3.90;;;;;;;;;;5032187;28;20446;-59
2023/09/08 04:07:58;;;;;;;5.10;4.07;;;;;;;;;;5032328;28;20477;-60
2023/09/08 04:10:26;;;;;;;4.43;3.70;;;;;;;;;;5031885;28;20796;-60
2023/09/08 04:12:53;;;;;;;5.20;4.20;;;;;;;;;;5032070;28;20569;-59
2023/09/08 04:15:20;;;;;;;4.87;4.33;;;;;;;;;;5032303;28;20892;-58
2023/09/08 04:17:49;;;;;;;5.03;3.77;;;;;;;;;;5031942;28;20450;-59
2023/09/08 04:20:16;;;;;;;4.83;3.63;;;;;;;;;;5032257;28;20469;-59
2023/09/08 04:22:44;;;;;;;5.93;4.60;;;;;;;;;;5031806;28;20883;-59
2023/09/08 04:25:11;;;;;;;6.03;4.60;;;;;;;;;;5031479;28;20964;-59
2023/09/08 04:27:38;;;;;;;5.27;3.90;;;;;;;;;;5031720;28;20936;-60
2023/09/08 04:30:06;;;;;;;5.17;3.93;;;;;;;;;;5031900;28;20520;-59
2023/09/08 04:32:33;;;;;;;5.10;4.20;;;;;;;;;;5031770;28;21011;-58
2023/09/08 04:35:02;;;;;;;5.10;3.83;;;;;;;;;;5032112;28;20473;-60
2023/09/08 04:37:30;;;;;;;4.73;3.60;;;;;;;;;;5031864;28;20928;-60
2023/09/08 04:39:57;;;;;;;6.20;4.60;;;;;;;;;;5031590;28;20469;-59
2023/09/08 04:42:25;;;;;;;5.67;4.27;;;;;;;;;;5031332;28;20765;-59
2023/09/08 04:44:53;;;;;;;5.10;4.03;;;;;;;;;;5031849;28;20437;-58
2023/09/08 04:47:20;;;;;;;6.53;4.10;;;;;;;;;;5031488;28;20476;-59
2023/09/08 04:49:47;;;;;;;5.23;4.10;;;;;;;;;;5031723;28;21019;-58
2023/09/08 04:52:16;;;;;;;5.80;4.60;;;;;;;;;;5030588;28;20585;-59
2023/09/08 04:54:43;;;;;;;5.37;4.17;;;;;;;;;;5031344;28;20529;-59
2023/09/08 04:57:10;;;;;;;5.13;3.93;;;;;;;;;;5030859;28;20480;-59
2023/09/08 04:59:39;;;;;;;5.63;4.20;;;;;;;;;;5031323;28;20461;-59
2023/09/08 05:02:07;;;;;;;4.80;4.20;;;;;;;;;;5030070;28;20940;-59
2023/09/08 05:04:34;;;;;;;5.73;3.80;;;;;;;;;;5030732;28;20455;-60
2023/09/08 05:07:01;;;;;;;5.10;3.87;;;;;;;;;;5031267;28;20498;-60
2023/09/08 05:09:30;;;;;;;6.27;4.50;;;;;;;;;;5030901;28;20868;-59
2023/09/08 05:11:59;;;;;;;5.20;4.43;;;;;;;;;;5029320;28;20544;-60
2023/09/08 05:14:26;;;;;;;5.23;4.10;;;;;;;;;;5030281;28;20434;-60
2023/09/08 05:16:55;;;;;;;6.77;4.20;;;;;;;;;;5030744;28;20438;-58
2023/09/08 05:19:23;;;;;;;7.27;4.53;;;;;;;;;;5030228;28;20450;-59
2023/09/08 05:21:51;;;;;;;5.03;3.73;;;;;;;;;;5030366;28;20443;-59
2023/09/08 05:24:20;;;;;;;4.63;4.07;;;;;;;;;;5030491;28;20881;-59
2023/09/08 05:26:49;;;;;;;7.83;5.03;;;;;;;;;;5029472;28;20438;-58
2023/09/08 05:29:16;;;;;;;6.13;4.00;;;;;;;;;;5029442;28;20466;-59
2023/09/08 05:31:44;;;;;;;4.90;4.23;;;;;;;;;;5030520;28;20866;-59
2023/09/08 05:34:11;;;;;;;5.60;4.57;;;;;;;;;;5030139;28;20833;-59
2023/09/08 05:36:39;;;;;;;5.80;4.90;;;;;;;;;;5030157;28;20474;-58
2023/09/08 05:39:07;;;;;;;5.23;4.50;;;;;;;;;;5017442;28;20504;-59
2023/09/08 05:41:34;;;;;;;4.77;4.27;;;;;;;;;;5030819;28;20462;-59
2023/09/08 05:44:03;;;;;;;5.30;4.20;;;;;;;;;;5030996;28;20488;-60
2023/09/08 05:46:30;;;;;;;5.20;3.57;;;;;;;;;;5029818;28;20434;-58
2023/09/08 05:48:58;;;;;;;5.57;4.43;;;;;;;;;;5030193;28;20434;-60
2023/09/08 05:51:25;;;;;;;5.10;4.17;;;;;;;;;;5030291;28;20440;-58
2023/09/08 05:53:52;;;;;;;4.83;4.33;;;;;;;;;;5030874;28;20486;-58
2023/09/08 05:56:20;;;;;;;5.10;4.13;;;;;;;;;;5030493;28;20447;-58
2023/09/08 05:58:48;;;;;;;4.57;3.90;;;;;;;;;;5029589;28;20948;-59
2023/09/08 06:01:17;;;;;;;4.33;3.83;;;;;;;;;;5029851;28;20450;-59
2023/09/08 06:03:44;;;;;;;8.83;5.17;;;;;;;;;;5030252;28;20484;-59
2023/09/08 06:06:12;;;;;;;7.33;4.50;;;;;;;;;;5030240;28;20446;-58
2023/09/08 06:08:39;;;;;;;8.57;4.53;;;;;;;;;;5029879;28;20446;-58
2023/09/08 06:11:06;;;;;;;6.53;5.10;;;;;;;;;;5030423;28;20473;-58
2023/09/08 06:13:33;;;;;;;5.77;4.60;;;;;;;;;;5028781;28;20918;-60
2023/09/08 06:16:00;;;;;;;6.13;5.53;;;;;;;;;;5025606;28;20569;-59
2023/09/08 06:18:30;;;;;;;4.73;4.23;;;;;;;;;;5028001;28;20427;-59
2023/09/08 06:20:57;;;;;;;7.10;4.70;;;;;;;;;;5028334;28;20441;-60
2023/09/08 06:23:25;;;;;;;6.13;3.97;;;;;;;;;;5028690;28;20482;-58
2023/09/08 06:25:52;;;;;;;4.60;3.70;;;;;;;;;;5027555;28;20832;-60
2023/09/08 06:28:19;;;;;;;6.33;4.77;;;;;;;;;;5029640;28;20521;-60
2023/09/08 06:30:46;;;;;;;5.97;4.30;;;;;;;;;;5029688;28;20868;-58
2023/09/08 06:33:14;;;;;;;5.47;4.33;;;;;;;;;;5029356;28;20561;-59
2023/09/08 06:35:42;;;;;;;5.70;4.53;;;;;;;;;;5029434;28;20528;-58
2023/09/08 06:38:10;;;;;;;5.60;4.53;;;;;;;;;;5029767;28;21540;-60
2023/09/08 06:40:37;;;;;;;6.73;4.63;;;;;;;;;;5020989;28;20438;-59
2023/09/08 06:43:04;;;;;;;6.07;4.90;;;;;;;;;;5029471;28;20853;-60
2023/09/08 06:45:31;;;;;;;6.80;5.10;;;;;;;;;;5029617;28;20525;-59
2023/09/08 06:47:59;;;;;;;6.30;5.00;;;;;;;;;;5029468;28;20521;-59
2023/09/08 06:50:28;;;;;;;4.33;3.90;;;;;;;;;;5029993;28;20443;-60
2023/09/08 06:52:57;;;;;;;6.40;5.27;;;;;;;;;;5029412;28;20873;-59
2023/09/08 06:55:24;;;;;;;5.00;4.50;;;;;;;;;;5029873;28;20479;-58
2023/09/08 06:57:52;;;;;;;5.23;4.10;;;;;;;;;;5029321;28;20471;-58
2023/09/08 07:00:20;;;;;;;9.63;4.70;;;;;;;;;;5029015;28;21011;-59
2023/09/08 07:02:49;;;;;;;5.37;4.50;;;;;;;;;;5027326;28;20489;-59
2023/09/08 07:05:16;;;;;;;6.37;4.70;;;;;;;;;;5027840;28;20449;-58
2023/09/08 07:07:44;;;;;;;5.80;4.40;;;;;;;;;;5018316;28;20446;-59
2023/09/08 07:10:13;;;;;;;7.07;5.20;;;;;;;;;;5029677;28;20691;-58
2023/09/08 07:12:40;;;;;;;5.70;4.97;;;;;;;;;;5029788;28;20462;-60
2023/09/08 07:15:08;;;;;;;5.60;4.73;;;;;;;;;;5028982;28;21026;-59
2023/09/08 07:17:35;;;;;;;5.30;4.67;;;;;;;;;;5029362;28;20994;-60
2023/09/08 07:20:03;;;;;;;5.00;3.87;;;;;;;;;;5030216;28;21020;-60
2023/09/08 07:22:30;;;;;;;6.43;5.43;;;;;;;;;;5033551;28;20468;-59
2023/09/08 07:24:57;;;;;;;6.03;4.70;;;;;;;;;;5033060;28;20531;-59
2023/09/08 07:27:26;;;;;;;7.40;4.60;;;;;;;;;;5033046;28;20898;-59
2023/09/08 07:29:53;;;;;;;5.77;4.47;;;;;;;;;;5033573;28;20488;-60
2023/09/08 07:32:22;;;;;;;7.77;5.60;;;;;;;;;;5033258;28;20742;-60
2023/09/08 07:34:54;;;;;;;6.97;5.73;;;;;;;;;;5033255;28;21003;-59
2023/09/08 07:37:22;;;;;;;5.50;4.20;;;;;;;;;;5032981;28;20449;-59
2023/09/08 07:39:49;;;;;;;5.30;4.17;;;;;;;;;;5033065;28;20448;-59
2023/09/08 07:42:16;;;;;;;5.33;4.63;;;;;;;;;;5033001;28;20512;-59
2023/09/08 07:44:45;;;;;;;7.50;4.90;;;;;;;;;;5033015;28;20945;-59
2023/09/08 07:47:13;;;;;;;5.60;5.00;;;;;;;;;;5032789;28;20491;-60
2023/09/08 07:49:40;;;;;;;6.80;4.70;;;;;;;;;;5033028;28;20484;-59
2023/09/08 07:52:07;;;;;;;8.97;5.30;;;;;;;;;;5032527;28;20520;-59
2023/09/08 07:54:34;;;;;;;5.77;4.83;;;;;;;;;;5032212;28;20572;-58
2023/09/08 07:57:02;;;;;;;6.70;5.03;;;;;;;;;;5031010;28;20848;-59
2023/09/08 07:59:29;;;;;;;6.07;5.07;;;;;;;;;;5031354;28;20505;-58
2023/09/08 08:01:57;;;;;;;8.47;6.10;;;;;;;;;;5031935;28;20531;-58
2023/09/08 08:04:25;;;;;;;7.20;4.50;;;;;;;;;;5031965;28;20485;-58
2023/09/08 08:06:52;;;;;;;6.47;5.13;;;;;;;;;;5032500;28;20519;-57
2023/09/08 08:09:19;;;;;;;7.03;5.10;;;;;;;;;;5032375;28;20504;-58
2023/09/08 08:11:46;;;;;;;6.10;4.67;;;;;;;;;;5032551;28;20465;-59
2023/09/08 08:14:14;;;;;;;6.63;5.07;;;;;;;;;;5030044;28;20524;-59
2023/09/08 08:16:41;;;;;;;6.00;4.80;;;;;;;;;;5032335;28;20438;-59
2023/09/08 08:19:09;;;;;;;5.90;5.17;;;;;;;;;;5032401;28;21016;-59
2023/09/08 08:21:37;;;;;;;5.73;4.97;;;;;;;;;;5032352;28;20957;-59
2023/09/08 08:24:05;;;;;;;5.83;5.17;;;;;;;;;;5032175;28;21027;-59
2023/09/08 08:26:32;;;;;;;6.70;5.37;;;;;;;;;;5031373;28;20481;-59
2023/09/08 08:29:00;;;;;;;5.73;5.17;;;;;;;;;;5032264;28;20442;-59
2023/09/08 08:31:27;;;;;;;5.57;4.57;;;;;;;;;;5031618;28;20452;-58
2023/09/08 08:33:55;;;;;;;6.37;5.20;;;;;;;;;;5031428;28;20486;-59
2023/09/08 08:36:23;;;;;;;6.63;5.50;;;;;;;;;;5031739;28;20434;-58
2023/09/08 08:38:51;;;;;;;7.20;5.50;;;;;;;;;;5032256;28;20462;-58
2023/09/08 08:41:18;;;;;;;15.10;5.70;;;;;;;;;;5031946;28;21006;-59
2023/09/08 08:43:47;;;;;;;5.77;5.03;;;;;;;;;;5031651;28;20527;-59
2023/09/08 08:46:15;;;;;;;6.17;5.10;;;;;;;;;;5031100;28;20442;-58
2023/09/08 08:48:42;;;;;;;9.00;4.93;;;;;;;;;;5031700;28;20537;-58
2023/09/08 08:51:10;;;;;;;7.87;5.63;;;;;;;;;;5031645;28;20766;-59
2023/09/08 08:53:39;;;;;;;7.67;4.70;;;;;;;;;;5031463;28;20474;-59
2023/09/08 08:56:08;;;;;;;5.53;4.80;;;;;;;;;;5031521;28;20963;-59
2023/09/08 08:58:37;;;;;;;11.60;6.40;;;;;;;;;;5031156;28;20443;-59
2023/09/08 09:01:05;;;;;;;15.90;6.80;;;;;;;;;;5031650;28;20533;-58
2023/09/08 09:03:34;;;;;;;6.20;4.90;;;;;;;;;;5053080;23;20590;-58
2023/09/08 09:06:01;;;;;;;7.07;5.10;;;;;;;;;;5051080;28;20477;-57
2023/09/08 09:08:29;;;;;;;9.10;5.30;;;;;;;;;;5051527;28;20476;-58
2023/09/08 09:10:58;;;;;;;5.93;5.13;;;;;;;;;;5051104;28;20517;-57
2023/09/08 09:13:25;;;;;;;9.80;5.30;;;;;;;;;;5051180;28;20963;-58
2023/09/08 09:15:52;;;;;;;6.60;5.40;;;;;;;;;;5050238;28;20437;-57
2023/09/08 09:18:20;;;;;;;5.73;4.80;;;;;;;;;;5051515;28;20469;-57
2023/09/08 09:20:55;;;;;;;5.50;4.40;;;;;;;;;;5051438;28;20480;-57
2023/09/08 09:23:28;;;;;;;6.57;5.00;;;;;;;;;;5051086;28;20591;-57
2023/09/08 09:25:57;;;;;;;7.80;5.23;;;;;;;;;;5050706;28;20450;-57
2023/09/08 09:28:24;;;;;;;7.57;5.40;;;;;;;;;;5051380;28;20495;-56
2023/09/08 09:30:54;;;;;;;6.53;5.07;;;;;;;;;;5051237;28;20512;-56
2023/09/08 09:33:21;;;;;;;10.40;5.60;;;;;;;;;;5050969;28;20971;-57
2023/09/08 09:35:50;;;;;;;7.20;4.80;;;;;;;;;;5050260;28;21069;-57
2023/09/08 09:38:18;;;;;;;6.40;5.67;;;;;;;;;;5051029;28;20444;-56
2023/09/08 09:40:46;;;;;;;6.23;5.40;;;;;;;;;;5051077;28;20477;-56
2023/09/08 09:43:15;;;;;;;5.23;4.70;;;;;;;;;;5050216;28;20544;-56
2023/09/08 09:45:43;;;;;;;4.93;4.43;;;;;;;;;;5050102;28;20469;-55
2023/09/08 09:48:11;;;;;;;6.30;5.70;;;;;;;;;;5050539;28;20648;-54
2023/09/08 09:50:39;;;;;;;6.80;5.03;;;;;;;;;;5051022;28;20429;-55
2023/09/08 09:53:09;;;;;;;6.60;5.17;;;;;;;;;;5050653;28;20460;-55
2023/09/08 09:55:38;;;;;;;7.20;5.57;;;;;;;;;;5050465;28;20489;-54
2023/09/08 09:58:06;;;;;;;8.20;5.93;;;;;;;;;;5050742;28;20444;-55
2023/09/08 10:00:35;;;;;;;6.43;5.60;;;;;;;;;;5050457;28;20910;-55
2023/09/08 10:03:03;;;;;;;5.50;4.93;;;;;;;;;;5050291;28;20469;-55
2023/09/08 10:05:30;;;;;;;5.47;4.67;;;;;;;;;;5050385;28;20900;-55
2023/09/08 10:07:58;;;;;;;6.73;5.47;;;;;;;;;;5050554;28;20520;-56
2023/09/08 10:10:25;;;;;;;5.90;4.97;;;;;;;;;;5050153;28;20521;-54
2023/09/08 10:12:54;;;;;;;6.07;4.97;;;;;;;;;;5050204;28;20449;-55
2023/09/08 10:15:22;;;;;;;6.60;5.50;;;;;;;;;;5049598;28;20608;-56
2023/09/08 10:17:54;;;;;;;5.03;4.27;;;;;;;;;;5047710;28;20857;-54
2023/09/08 10:20:23;;;;;;;6.00;4.77;;;;;;;;;;5050224;28;20433;-56
2023/09/08 10:22:54;;;;;;;6.50;5.00;;;;;;;;;;5049953;28;20532;-55
2023/09/08 10:25:22;;;;;;;5.30;4.43;;;;;;;;;;5049176;28;20443;-55
2023/09/08 10:27:50;;;;;;;5.83;5.20;;;;;;;;;;5049968;28;20507;-54
2023/09/08 10:30:17;;;;;;;7.40;5.40;;;;;;;;;;5049766;28;20540;-54
2023/09/08 10:32:45;;;;;;;6.30;5.30;;;;;;;;;;5048933;28;20536;-55
2023/09/08 10:35:13;;;;;;;6.10;4.73;;;;;;;;;;5049733;28;20899;-54
2023/09/08 10:37:41;;;;;;;5.90;4.80;;;;;;;;;;5046302;28;20459;-56
2023/09/08 10:40:24;;;;;;;5.53;4.70;;;;;;;;;;5047389;28;20468;-56
2023/09/08 10:43:07;;;;;;;6.07;5.47;;;;;;;;;;5048367;28;20469;-55
2023/09/08 10:45:34;;;;;;;6.07;5.47;;;;;;;;;;5048773;28;21023;-55
2023/09/08 10:48:02;;;;;;;5.90;5.17;;;;;;;;;;5049182;28;20441;-55
2023/09/08 10:50:35;;;;;;;6.37;4.90;;;;;;;;;;5047596;28;20947;-56
2023/09/08 10:53:10;;;;;;;5.73;5.20;;;;;;;;;;5049178;28;20519;-54
2023/09/08 10:55:38;;;;;;;6.50;5.40;;;;;;;;;;5048430;28;20518;-56
2023/09/08 10:58:06;;;;;;;6.40;5.80;;;;;;;;;;5053596;28;20516;-55
2023/09/08 11:00:44;;;;;;;5.40;4.90;;;;;;;;;;5053468;28;20441;-54
2023/09/08 11:03:11;;;;;;;5.90;5.13;;;;;;;;;;5051749;28;20476;-55
2023/09/08 11:05:40;;;;;;;5.90;5.30;;;;;;;;;;5052414;28;20468;-55
2023/09/08 11:08:07;;;;;;;6.03;5.33;;;;;;;;;;5053647;28;20473;-55
2023/09/08 11:10:35;;;;;;;6.03;5.43;;;;;;;;;;5054006;28;20433;-54
2023/09/08 11:13:03;;;;;;;7.43;6.20;;;;;;;;;;5053667;28;20553;-56
2023/09/08 11:15:31;;;;;;;7.07;5.90;;;;;;;;;;5052690;28;21013;-57
2023/09/08 11:17:58;;;;;;;8.20;5.70;;;;;;;;;;5053459;28;20452;-55
2023/09/08 11:20:29;;;;;;;6.30;5.70;;;;;;;;;;5053319;28;20507;-55
2023/09/08 11:22:57;;;;;;;7.20;5.20;;;;;;;;;;5054022;28;20458;-55
2023/09/08 11:25:25;;;;;;;6.47;5.50;;;;;;;;;;5053568;28;20469;-55
2023/09/08 11:27:52;;;;;;;5.80;5.20;;;;;;;;;;5053580;28;20445;-55
2023/09/08 11:30:19;;;;;;;6.40;4.83;;;;;;;;;;5053013;28;20477;-55
2023/09/08 11:32:46;;;;;;;4.87;4.37;;;;;;;;;;5052864;28;20496;-55
2023/09/08 11:35:15;;;;;;;5.63;5.13;;;;;;;;;;5053080;28;20931;-55
2023/09/08 11:37:43;;;;;;;6.03;5.30;;;;;;;;;;5052378;28;20468;-55
2023/09/08 11:40:13;;;;;;;6.03;5.30;;;;;;;;;;5053479;28;20441;-55
2023/09/08 11:42:43;;;;;;;6.57;5.23;;;;;;;;;;5053566;28;20484;-55
2023/09/08 11:45:12;;;;;;;5.90;5.03;;;;;;;;;;5052869;28;20928;-55
2023/09/08 11:47:41;;;;;;;5.23;4.73;;;;;;;;;;5053065;28;20449;-55
2023/09/08 11:50:11;;;;;;;5.33;4.83;;;;;;;;;;5052542;28;20766;-55
2023/09/08 11:52:39;;;;;;;5.37;4.83;;;;;;;;;;5051816;28;20474;-55
2023/09/08 11:55:06;;;;;;;5.80;5.00;;;;;;;;;;5049237;28;20904;-55
2023/09/08 11:57:35;;;;;;;6.07;5.30;;;;;;;;;;5052381;28;20492;-55
2023/09/08 12:00:05;;;;;;;5.70;4.90;;;;;;;;;;5052557;28;20468;-57
2023/09/08 12:02:36;;;;;;;5.57;4.97;;;;;;;;;;5052343;28;20449;-55
2023/09/08 12:05:03;;;;;;;6.43;4.97;;;;;;;;;;5052698;28;20416;-55
2023/09/08 12:07:31;;;;;;;5.90;4.83;;;;;;;;;;5051229;28;20477;-55
2023/09/08 12:09:58;;;;;;;5.93;4.87;;;;;;;;;;5051370;28;20468;-56
2023/09/08 12:12:26;;;;;;;6.93;6.27;;;;;;;;;;5051265;28;20445;-55
2023/09/08 12:14:54;;;;;;;6.07;5.33;;;;;;;;;;5052610;28;20992;-55
2023/09/08 12:17:25;;;;;;;5.43;4.93;;;;;;;;;;5050716;28;20500;-55
2023/09/08 12:19:52;;;;;;;7.10;5.30;;;;;;;;;;5052232;28;20515;-55
2023/09/08 12:22:22;;;;;;;6.57;5.73;;;;;;;;;;5052196;28;20437;-56
2023/09/08 12:24:50;;;;;;;6.30;5.63;;;;;;;;;;5052474;28;20441;-55
2023/09/08 12:27:18;;;;;;;7.30;6.23;;;;;;;;;;5051850;28;20468;-55
2023/09/08 12:29:55;;;;;;;6.10;5.50;;;;;;;;;;5052612;28;20472;-56
2023/09/08 12:32:22;;;;;;;6.17;5.23;;;;;;;;;;5051975;28;20436;-55
2023/09/08 12:34:49;;;;;;;6.90;5.87;;;;;;;;;;5052242;28;20501;-56
2023/09/08 12:37:20;;;;;;;7.10;5.97;;;;;;;;;;5051754;28;20935;-55
2023/09/08 12:39:48;;;;;;;7.70;6.27;;;;;;;;;;5052406;28;20477;-55
2023/09/08 12:42:15;;;;;;;8.23;5.80;;;;;;;;;;5052281;28;20582;-56
2023/09/08 12:44:43;;;;;;;7.07;6.37;;;;;;;;;;5052089;28;20493;-55
2023/09/08 12:47:13;;;;;;;6.13;5.53;;;;;;;;;;5052022;28;20532;-55
2023/09/08 12:49:40;;;;;;;8.80;6.60;;;;;;;;;;5051761;28;20443;-55
2023/09/08 12:52:09;;;;;;;6.20;5.60;;;;;;;;;;5051544;28;20959;-55
2023/09/08 12:54:36;;;;;;;7.33;5.97;;;;;;;;;;5051753;28;20520;-55
2023/09/08 12:57:04;;;;;;;10.43;6.53;;;;;;;;;;5051753;28;20473;-55
2023/09/08 12:59:31;;;;;;;7.27;6.57;;;;;;;;;;5052063;28;20947;-55
2023/09/08 13:01:58;;;;;;;6.40;5.70;;;;;;;;;;5051889;28;20481;-56
2023/09/08 13:04:27;;;;;;;6.97;6.00;;;;;;;;;;5050964;28;20487;-55
2023/09/08 13:06:54;;;;;;;7.20;6.50;;;;;;;;;;5052127;28;20469;-55
2023/09/08 13:09:21;;;;;;;7.13;6.43;;;;;;;;;;5051644;28;20527;-55
2023/09/08 13:11:51;;;;;;;7.13;6.43;;;;;;;;;;5051312;28;20495;-55
2023/09/08 13:14:18;;;;;;;7.70;6.90;;;;;;;;;;5051405;28;20549;-55
2023/09/08 13:16:45;;;;;;;6.97;6.27;;;;;;;;;;5051459;28;20517;-56
2023/09/08 13:19:13;;;;;;;8.47;6.50;;;;;;;;;;5051323;28;20484;-55
2023/09/08 13:21:41;;;;;;;7.60;6.80;;;;;;;;;;5051440;28;20469;-55
2023/09/08 13:24:09;;;;;;;8.03;6.90;;;;;;;;;;5051215;28;20558;-55
2023/09/08 13:26:36;;;;;;;8.13;6.83;;;;;;;;;;5050744;28;20862;-54
2023/09/08 13:29:04;;;;;;;6.73;6.13;;;;;;;;;;5051206;28;20485;-55
2023/09/08 13:31:31;;;;;;;7.27;6.57;;;;;;;;;;5050576;28;20448;-56
2023/09/08 13:33:58;;;;;;;7.23;6.53;;;;;;;;;;5050984;28;20500;-55
2023/09/08 13:36:25;;;;;;;10.60;7.80;;;;;;;;;;5050869;28;20640;-55
2023/09/08 13:38:54;;;;;;;7.77;6.13;;;;;;;;;;5051041;28;21002;-55
2023/09/08 13:41:21;;;;;;;10.40;7.20;;;;;;;;;;5050798;28;21054;-56
2023/09/08 13:43:49;;;;;;;7.53;6.80;;;;;;;;;;5050932;28;20998;-55
2023/09/08 13:46:16;;;;;;;7.70;6.90;;;;;;;;;;5050899;28;20465;-56
2023/09/08 13:48:43;;;;;;;8.10;7.30;;;;;;;;;;5051481;28;20511;-55
2023/09/08 13:51:10;;;;;;;7.20;6.57;;;;;;;;;;5050568;28;20484;-55
2023/09/08 13:53:38;;;;;;;6.70;6.10;;;;;;;;;;5050914;28;20881;-55
2023/09/08 13:56:06;;;;;;;8.17;7.50;;;;;;;;;;5050541;28;20465;-54
2023/09/08 13:58:34;;;;;;;8.30;7.50;;;;;;;;;;5050815;28;20470;-55
2023/09/08 14:01:01;;;;;;;7.50;6.77;;;;;;;;;;5051252;28;20439;-56
2023/09/08 14:03:28;;;;;;;7.73;7.03;;;;;;;;;;5050446;28;20560;-57
2023/09/08 14:05:55;;;;;;;6.87;6.17;;;;;;;;;;5050621;28;20469;-56
2023/09/08 14:08:23;;;;;;;9.13;7.40;;;;;;;;;;5050487;28;20876;-56
2023/09/08 14:10:51;;;;;;;7.90;6.77;;;;;;;;;;5049809;28;20473;-55
2023/09/08 14:13:20;;;;;;;8.77;7.97;;;;;;;;;;5050028;28;20540;-55
2023/09/08 14:15:47;;;;;;;9.23;7.13;;;;;;;;;;5050128;28;20576;-56
2023/09/08 14:18:14;;;;;;;8.17;7.37;;;;;;;;;;5049928;28;20473;-55
2023/09/08 14:20:42;;;;;;;8.97;8.07;;;;;;;;;;5049956;28;20961;-54
2023/09/08 14:23:09;;;;;;;8.10;7.33;;;;;;;;;;5049103;28;20520;-57
2023/09/08 14:25:36;;;;;;;7.93;6.83;;;;;;;;;;5049903;28;20586;-57
2023/09/08 14:28:04;;;;;;;7.93;7.17;;;;;;;;;;5049947;28;20473;-56
2023/09/08 14:30:32;;;;;;;8.10;7.37;;;;;;;;;;5050922;28;20537;-58
2023/09/08 14:32:59;;;;;;;7.80;6.57;;;;;;;;;;5054059;28;20787;-57
2023/09/08 14:35:27;;;;;;;8.50;7.70;;;;;;;;;;5053799;28;20566;-58
2023/09/08 14:37:54;;;;;;;7.37;6.67;;;;;;;;;;5054329;28;20932;-60
2023/09/08 14:40:23;;;;;;;8.17;7.37;;;;;;;;;;5053620;28;20481;-60
2023/09/08 14:42:51;;;;;;;8.10;6.53;;;;;;;;;;5053858;28;20519;-58
2023/09/08 14:45:18;;;;;;;7.83;7.13;;;;;;;;;;5054681;28;20465;-59
2023/09/08 14:47:46;;;;;;;7.93;7.20;;;;;;;;;;5054223;28;20477;-60